Time,TemperatureF,DewpointF,PressureIn,WindDirection,WindDirectionDegrees,WindSpeedMPH,WindSpeedGustMPH,Humidity,HourlyPrecipIn,Conditions,Clouds,dailyrainin,SoftwareType,DateUTC
2013-09-02 00:14:00,71.0,71.0,30.03,NE,46,0.0,0.0,99,0.00,,,0.01,,2013-09-02 04:14:00,
2013-09-02 00:54:00,70.0,70.0,30.03,NNE,14,0.0,0.0,100,0.00,,,0.01,,2013-09-02 04:54:00,
2013-09-02 01:23:00,70.0,70.0,30.03,NNE,14,0.0,0.0,100,0.00,,,0.92,,2013-09-02 05:23:00,
2013-09-02 01:52:00,69.0,69.0,30.02,NNE,18,0.0,0.0,100,0.00,,,0.92,,2013-09-02 05:52:00,
2013-09-02 02:22:00,70.0,70.0,30.02,NNE,18,0.0,0.0,100,0.00,,,0.92,,2013-09-02 06:22:00,
2013-09-02 02:43:00,70.0,70.0,30.02,NNW,345,0.0,1.0,100,0.00,,,0.92,,2013-09-02 06:43:00,
2013-09-02 02:52:00,71.0,71.0,30.01,ENE,62,0.0,0.0,99,0.00,,,0.92,,2013-09-02 06:52:00,
2013-09-02 03:21:00,70.0,70.0,30.01,North,6,0.0,0.0,100,0.00,,,0.92,,2013-09-02 07:21:00,
2013-09-02 03:52:00,72.0,70.0,30.01,SW,235,3.0,4.0,95,0.00,,,0.92,,2013-09-02 07:52:00,
2013-09-02 04:22:00,73.0,71.0,30.00,SW,214,1.0,2.0,93,0.00,,,0.92,,2013-09-02 08:22:00,
2013-09-02 04:52:00,73.0,71.0,30.00,SW,235,3.0,4.0,93,0.00,,,0.92,,2013-09-02 08:52:00,
2013-09-02 05:22:00,74.0,71.0,29.99,SW,228,0.0,2.0,89,0.00,,,0.92,,2013-09-02 09:22:00,
2013-09-02 05:53:00,70.0,69.0,29.99,East,83,0.0,0.0,98,0.00,,,0.92,,2013-09-02 09:53:00,
2013-09-02 06:23:00,69.0,69.0,30.00,East,83,0.0,0.0,100,0.00,,,0.91,,2013-09-02 10:23:00,
2013-09-02 06:53:00,68.0,68.0,30.01,NNE,13,0.0,0.0,100,0.00,,,0.91,,2013-09-02 10:53:00,
2013-09-02 07:22:00,68.0,68.0,30.02,North,11,0.0,0.0,100,0.00,,,0.91,,2013-09-02 11:22:00,
2013-09-02 07:52:00,67.0,67.0,30.03,North,10,0.0,0.0,100,0.00,,,0.91,,2013-09-02 11:52:00,
2013-09-02 08:21:00,68.0,68.0,30.04,SSE,156,1.0,4.0,100,0.00,,,0.91,,2013-09-02 12:21:00,
2013-09-02 08:52:00,70.0,70.0,30.04,NNE,23,0.0,0.0,100,0.00,,,0.91,,2013-09-02 12:52:00,
2013-09-02 09:22:00,73.0,71.0,30.05,ENE,75,0.0,0.0,95,0.00,,,0.91,,2013-09-02 13:22:00,
2013-09-02 09:52:00,76.0,72.0,30.06,SW,225,3.0,4.0,88,0.00,,,0.91,,2013-09-02 13:52:00,
2013-09-02 10:22:00,78.0,72.0,30.06,NE,46,2.0,4.0,83,0.00,,,0.91,,2013-09-02 14:22:00,
2013-09-02 10:52:00,79.0,73.0,30.06,South,186,3.0,5.0,81,0.00,,,0.91,,2013-09-02 14:52:00,
2013-09-02 11:23:00,82.0,74.0,30.06,West,267,3.0,4.0,76,0.00,,,0.91,,2013-09-02 15:23:00,
2013-09-02 11:54:00,84.0,75.0,30.06,WSW,243,2.0,2.0,75,0.00,,,0.91,,2013-09-02 15:54:00,
2013-09-02 12:24:00,82.0,75.0,30.06,SSE,158,2.0,2.0,80,0.00,,,0.91,,2013-09-02 16:24:00,
2013-09-02 12:53:00,83.0,74.0,30.06,SW,235,1.0,3.0,75,0.00,,,0.91,,2013-09-02 16:53:00,
2013-09-02 13:23:00,85.0,76.0,30.05,NW,323,0.0,1.0,74,0.00,,,0.91,,2013-09-02 17:23:00,
2013-09-02 13:52:00,86.0,76.0,30.04,NE,44,1.0,1.0,73,0.00,,,0.91,,2013-09-02 17:52:00,
2013-09-02 14:22:00,89.0,77.0,30.04,WNW,290,1.0,2.0,68,0.00,,,0.91,,2013-09-02 18:22:00,
2013-09-02 14:52:00,87.0,76.0,30.03,SW,222,1.0,2.0,71,0.00,,,0.91,,2013-09-02 18:52:00,
2013-09-02 15:22:00,86.0,76.0,30.01,SSE,160,3.0,4.0,72,0.00,,,0.91,,2013-09-02 19:22:00,
2013-09-02 15:52:00,87.0,77.0,30.00,SE,134,1.0,2.0,73,0.00,,,0.91,,2013-09-02 19:52:00,
2013-09-02 16:22:00,85.0,78.0,29.99,West,264,0.0,0.0,79,0.00,,,0.91,,2013-09-02 20:22:00,
2013-09-02 16:52:00,86.0,79.0,29.98,South,184,0.0,0.0,80,0.00,,,0.91,,2013-09-02 20:52:00,
2013-09-02 17:23:00,85.0,78.0,29.98,East,86,0.0,0.0,79,0.00,,,0.91,,2013-09-02 21:23:00,
2013-09-02 17:30:00,86.0,79.0,29.98,East,86,0.0,0.0,81,0.00,,,0.91,,2013-09-02 21:30:00,
2013-09-02 17:54:00,86.0,79.0,29.98,East,86,0.0,0.0,81,0.00,,,0.91,,2013-09-02 21:54:00,
2013-09-02 18:04:00,86.0,79.0,29.98,East,86,0.0,0.0,81,0.00,,,0.91,,2013-09-02 22:04:00,
2013-09-02 18:13:00,86.0,79.0,29.98,East,86,0.0,0.0,81,0.00,,,0.91,,2013-09-02 22:13:00,
2013-09-02 18:24:00,86.0,79.0,29.98,East,86,0.0,0.0,81,0.00,,,0.91,,2013-09-02 22:24:00,